sensor_id;sensor_type;location;lat;lon;timestamp;temperature;humidity
6178;DHT22;3122;48.208;11.174;2022-09-09T00:01:41;13.70;1.00
6178;DHT22;3122;48.208;11.174;2022-09-09T00:12:24;13.50;1.00
6178;DHT22;3122;48.208;11.174;2022-09-09T00:23:28;13.40;1.00
6178;DHT22;3122;48.208;11.174;2022-09-09T00:28:30;13.40;1.00
6178;DHT22;3122;48.208;11.174;2022-09-09T00:33:32;13.30;1.00
6178;DHT22;3122;48.208;11.174;2022-09-09T00:38:36;13.30;1.00
6178;DHT22;3122;48.208;11.174;2022-09-09T00:43:39;13.20;1.00
6178;DHT22;3122;48.208;11.174;2022-09-09T00:59:58;13.30;1.00
6178;DHT22;3122;48.208;11.174;2022-09-09T01:05:07;13.30;1.00
6178;DHT22;3122;48.208;11.174;2022-09-09T01:10:25;13.40;1.00
6178;DHT22;3122;48.208;11.174;2022-09-09T01:15:29;13.40;1.00
6178;DHT22;3122;48.208;11.174;2022-09-09T01:31:26;13.40;1.00
6178;DHT22;3122;48.208;11.174;2022-09-09T01:36:35;13.40;1.00
6178;DHT22;3122;48.208;11.174;2022-09-09T01:41:38;13.40;1.00
6178;DHT22;3122;48.208;11.174;2022-09-09T01:46:39;13.40;1.00
6178;DHT22;3122;48.208;11.174;2022-09-09T01:51:41;13.30;1.00
6178;DHT22;3122;48.208;11.174;2022-09-09T01:57:05;13.40;1.00
6178;DHT22;3122;48.208;11.174;2022-09-09T02:12:25;13.40;1.00
6178;DHT22;3122;48.208;11.174;2022-09-09T02:17:30;13.40;1.00
6178;DHT22;3122;48.208;11.174;2022-09-09T02:22:33;13.30;1.00
6178;DHT22;3122;48.208;11.174;2022-09-09T02:27:36;13.20;1.00
6178;DHT22;3122;48.208;11.174;2022-09-09T02:32:37;13.20;1.00
6178;DHT22;3122;48.208;11.174;2022-09-09T02:37:42;13.20;1.00
6178;DHT22;3122;48.208;11.174;2022-09-09T02:42:45;13.10;1.00
6178;DHT22;3122;48.208;11.174;2022-09-09T02:58:17;13.20;1.00
6178;DHT22;3122;48.208;11.174;2022-09-09T03:03:19;13.20;1.00
6178;DHT22;3122;48.208;11.174;2022-09-09T03:08:20;13.20;1.00
6178;DHT22;3122;48.208;11.174;2022-09-09T03:13:21;13.30;1.00
6178;DHT22;3122;48.208;11.174;2022-09-09T03:18:21;13.20;1.00
6178;DHT22;3122;48.208;11.174;2022-09-09T03:23:22;13.20;1.00
6178;DHT22;3122;48.208;11.174;2022-09-09T03:28:23;13.00;1.00
6178;DHT22;3122;48.208;11.174;2022-09-09T03:33:25;13.10;1.00
6178;DHT22;3122;48.208;11.174;2022-09-09T03:38:26;13.10;1.00
6178;DHT22;3122;48.208;11.174;2022-09-09T03:43:27;13.10;1.00
6178;DHT22;3122;48.208;11.174;2022-09-09T03:48:28;13.00;1.00
6178;DHT22;3122;48.208;11.174;2022-09-09T03:53:29;13.00;1.00
6178;DHT22;3122;48.208;11.174;2022-09-09T03:58:30;13.00;1.00
6178;DHT22;3122;48.208;11.174;2022-09-09T04:03:31;13.00;1.00
6178;DHT22;3122;48.208;11.174;2022-09-09T04:08:32;12.90;1.00
6178;DHT22;3122;48.208;11.174;2022-09-09T04:13:37;13.00;1.00
6178;DHT22;3122;48.208;11.174;2022-09-09T04:18:39;13.10;1.00
6178;DHT22;3122;48.208;11.174;2022-09-09T04:23:40;13.20;1.00
6178;DHT22;3122;48.208;11.174;2022-09-09T04:28:40;13.40;1.00
6178;DHT22;3122;48.208;11.174;2022-09-09T04:33:41;13.50;1.00
6178;DHT22;3122;48.208;11.174;2022-09-09T04:38:42;13.60;1.00
6178;DHT22;3122;48.208;11.174;2022-09-09T04:43:44;13.80;1.00
6178;DHT22;3122;48.208;11.174;2022-09-09T04:48:45;13.80;1.00
6178;DHT22;3122;48.208;11.174;2022-09-09T04:53:46;13.90;1.00
6178;DHT22;3122;48.208;11.174;2022-09-09T04:58:47;13.90;1.00
6178;DHT22;3122;48.208;11.174;2022-09-09T05:03:48;13.90;1.00
6178;DHT22;3122;48.208;11.174;2022-09-09T05:08:49;13.90;1.00
6178;DHT22;3122;48.208;11.174;2022-09-09T05:13:50;14.00;1.00
6178;DHT22;3122;48.208;11.174;2022-09-09T05:18:52;14.00;1.00
6178;DHT22;3122;48.208;11.174;2022-09-09T05:23:53;14.10;1.00
6178;DHT22;3122;48.208;11.174;2022-09-09T05:28:53;14.10;1.00
6178;DHT22;3122;48.208;11.174;2022-09-09T05:33:54;14.10;1.00
6178;DHT22;3122;48.208;11.174;2022-09-09T05:38:54;14.30;1.00
6178;DHT22;3122;48.208;11.174;2022-09-09T05:43:55;14.40;1.00
6178;DHT22;3122;48.208;11.174;2022-09-09T05:48:56;14.50;1.00
6178;DHT22;3122;48.208;11.174;2022-09-09T05:53:56;14.60;1.00
6178;DHT22;3122;48.208;11.174;2022-09-09T05:59:00;14.70;1.00
6178;DHT22;3122;48.208;11.174;2022-09-09T06:04:02;14.70;1.00
6178;DHT22;3122;48.208;11.174;2022-09-09T06:09:04;14.80;1.00
6178;DHT22;3122;48.208;11.174;2022-09-09T06:14:07;14.90;1.00
6178;DHT22;3122;48.208;11.174;2022-09-09T06:19:07;14.80;1.00
6178;DHT22;3122;48.208;11.174;2022-09-09T06:24:08;14.70;1.00
6178;DHT22;3122;48.208;11.174;2022-09-09T06:29:09;14.80;1.00
6178;DHT22;3122;48.208;11.174;2022-09-09T06:34:10;14.80;1.00
6178;DHT22;3122;48.208;11.174;2022-09-09T06:39:10;14.90;1.00
6178;DHT22;3122;48.208;11.174;2022-09-09T06:44:11;14.70;1.00
6178;DHT22;3122;48.208;11.174;2022-09-09T06:49:12;14.70;1.00
6178;DHT22;3122;48.208;11.174;2022-09-09T06:54:13;14.80;1.00
6178;DHT22;3122;48.208;11.174;2022-09-09T06:59:13;14.80;1.00
6178;DHT22;3122;48.208;11.174;2022-09-09T07:04:14;14.90;1.00
6178;DHT22;3122;48.208;11.174;2022-09-09T07:09:16;15.00;1.00
6178;DHT22;3122;48.208;11.174;2022-09-09T07:14:16;15.10;1.00
6178;DHT22;3122;48.208;11.174;2022-09-09T07:19:17;15.00;1.00
6178;DHT22;3122;48.208;11.174;2022-09-09T07:24:18;15.00;1.00
6178;DHT22;3122;48.208;11.174;2022-09-09T07:29:18;14.90;1.00
6178;DHT22;3122;48.208;11.174;2022-09-09T07:34:19;14.90;1.00
6178;DHT22;3122;48.208;11.174;2022-09-09T07:39:19;14.90;1.00
6178;DHT22;3122;48.208;11.174;2022-09-09T07:44:22;14.90;1.00
6178;DHT22;3122;48.208;11.174;2022-09-09T07:49:23;14.80;1.00
6178;DHT22;3122;48.208;11.174;2022-09-09T07:54:24;14.90;1.00
6178;DHT22;3122;48.208;11.174;2022-09-09T07:59:26;15.00;1.00
6178;DHT22;3122;48.208;11.174;2022-09-09T08:04:28;15.10;1.00
6178;DHT22;3122;48.208;11.174;2022-09-09T08:09:29;15.30;1.00
6178;DHT22;3122;48.208;11.174;2022-09-09T08:14:32;15.50;1.00
6178;DHT22;3122;48.208;11.174;2022-09-09T08:19:33;15.60;1.00
6178;DHT22;3122;48.208;11.174;2022-09-09T08:24:36;15.70;1.00
6178;DHT22;3122;48.208;11.174;2022-09-09T08:29:36;15.90;1.00
6178;DHT22;3122;48.208;11.174;2022-09-09T08:34:38;16.10;1.00
6178;DHT22;3122;48.208;11.174;2022-09-09T08:39:38;16.20;1.00
6178;DHT22;3122;48.208;11.174;2022-09-09T08:55:41;16.40;1.00
6178;DHT22;3122;48.208;11.174;2022-09-09T09:11:23;16.30;1.00
6178;DHT22;3122;48.208;11.174;2022-09-09T09:16:34;16.20;1.00
6178;DHT22;3122;48.208;11.174;2022-09-09T09:26:44;16.20;1.00
6178;DHT22;3122;48.208;11.174;2022-09-09T09:31:51;16.20;1.00
6178;DHT22;3122;48.208;11.174;2022-09-09T09:36:59;16.20;1.00
6178;DHT22;3122;48.208;11.174;2022-09-09T09:42:16;16.40;1.00
6178;DHT22;3122;48.208;11.174;2022-09-09T09:47:22;16.60;1.00
6178;DHT22;3122;48.208;11.174;2022-09-09T09:52:25;16.80;1.00
6178;DHT22;3122;48.208;11.174;2022-09-09T09:57:28;17.00;1.00
6178;DHT22;3122;48.208;11.174;2022-09-09T10:02:38;17.10;1.00
6178;DHT22;3122;48.208;11.174;2022-09-09T10:07:40;17.10;1.00
6178;DHT22;3122;48.208;11.174;2022-09-09T10:18:34;17.20;1.00
6178;DHT22;3122;48.208;11.174;2022-09-09T10:29:34;17.30;1.00
6178;DHT22;3122;48.208;11.174;2022-09-09T10:35:24;17.30;1.00
6178;DHT22;3122;48.208;11.174;2022-09-09T10:40:32;17.40;1.00
6178;DHT22;3122;48.208;11.174;2022-09-09T10:45:53;17.30;1.00
6178;DHT22;3122;48.208;11.174;2022-09-09T10:56:08;17.60;1.00
6178;DHT22;3122;48.208;11.174;2022-09-09T11:01:22;17.60;1.00
6178;DHT22;3122;48.208;11.174;2022-09-09T11:06:31;17.60;1.00
6178;DHT22;3122;48.208;11.174;2022-09-09T11:11:39;17.70;1.00
6178;DHT22;3122;48.208;11.174;2022-09-09T11:16:49;17.70;1.00
6178;DHT22;3122;48.208;11.174;2022-09-09T11:21:52;17.90;1.00
6178;DHT22;3122;48.208;11.174;2022-09-09T11:26:57;18.00;1.00
6178;DHT22;3122;48.208;11.174;2022-09-09T11:32:20;18.10;1.00
6178;DHT22;3122;48.208;11.174;2022-09-09T11:42:38;18.30;1.00
6178;DHT22;3122;48.208;11.174;2022-09-09T11:47:39;18.50;1.00
6178;DHT22;3122;48.208;11.174;2022-09-09T11:52:42;18.60;1.00
6178;DHT22;3122;48.208;11.174;2022-09-09T11:57:46;18.70;1.00
6178;DHT22;3122;48.208;11.174;2022-09-09T12:02:49;18.80;1.00
6178;DHT22;3122;48.208;11.174;2022-09-09T12:07:56;18.80;1.00
6178;DHT22;3122;48.208;11.174;2022-09-09T12:13:18;18.70;1.00
6178;DHT22;3122;48.208;11.174;2022-09-09T12:23:37;18.80;1.00
6178;DHT22;3122;48.208;11.174;2022-09-09T12:34:13;18.60;1.00
6178;DHT22;3122;48.208;11.174;2022-09-09T12:39:28;18.60;1.00
6178;DHT22;3122;48.208;11.174;2022-09-09T12:44:30;18.70;1.00
6178;DHT22;3122;48.208;11.174;2022-09-09T12:49:35;18.70;1.00
6178;DHT22;3122;48.208;11.174;2022-09-09T12:54:37;18.70;1.00
6178;DHT22;3122;48.208;11.174;2022-09-09T12:59:40;18.70;1.00
6178;DHT22;3122;48.208;11.174;2022-09-09T13:04:42;18.90;1.00
6178;DHT22;3122;48.208;11.174;2022-09-09T13:09:44;18.90;1.00
6178;DHT22;3122;48.208;11.174;2022-09-09T13:14:47;18.90;1.00
6178;DHT22;3122;48.208;11.174;2022-09-09T13:19:50;19.00;1.00
6178;DHT22;3122;48.208;11.174;2022-09-09T13:35:24;19.30;1.00
6178;DHT22;3122;48.208;11.174;2022-09-09T13:40:25;19.60;1.00
6178;DHT22;3122;48.208;11.174;2022-09-09T13:45:26;19.80;1.00
6178;DHT22;3122;48.208;11.174;2022-09-09T13:50:28;19.90;1.00
6178;DHT22;3122;48.208;11.174;2022-09-09T13:55:30;20.10;1.00
6178;DHT22;3122;48.208;11.174;2022-09-09T14:00:33;19.90;1.00
6178;DHT22;3122;48.208;11.174;2022-09-09T14:05:34;19.40;1.00
6178;DHT22;3122;48.208;11.174;2022-09-09T14:10:34;19.60;1.00
6178;DHT22;3122;48.208;11.174;2022-09-09T14:15:37;19.80;1.00
6178;DHT22;3122;48.208;11.174;2022-09-09T14:20:38;19.90;1.00
6178;DHT22;3122;48.208;11.174;2022-09-09T14:25:42;19.90;1.00
6178;DHT22;3122;48.208;11.174;2022-09-09T14:30:43;19.80;1.00
6178;DHT22;3122;48.208;11.174;2022-09-09T14:35:47;19.70;1.00
6178;DHT22;3122;48.208;11.174;2022-09-09T14:40:47;19.60;1.00
6178;DHT22;3122;48.208;11.174;2022-09-09T14:45:48;19.90;1.00
6178;DHT22;3122;48.208;11.174;2022-09-09T14:50:51;20.10;1.00
6178;DHT22;3122;48.208;11.174;2022-09-09T14:55:52;20.10;1.00
6178;DHT22;3122;48.208;11.174;2022-09-09T15:00:52;20.10;1.00
6178;DHT22;3122;48.208;11.174;2022-09-09T15:05:53;20.00;1.00
6178;DHT22;3122;48.208;11.174;2022-09-09T15:11:01;19.60;1.00
6178;DHT22;3122;48.208;11.174;2022-09-09T15:16:25;19.60;1.00
6178;DHT22;3122;48.208;11.174;2022-09-09T15:21:31;19.40;1.00
6178;DHT22;3122;48.208;11.174;2022-09-09T15:26:32;19.40;1.00
6178;DHT22;3122;48.208;11.174;2022-09-09T15:31:33;19.30;1.00
6178;DHT22;3122;48.208;11.174;2022-09-09T15:36:41;19.10;1.00
6178;DHT22;3122;48.208;11.174;2022-09-09T15:41:46;18.90;1.00
6178;DHT22;3122;48.208;11.174;2022-09-09T15:46:52;19.00;1.00
6178;DHT22;3122;48.208;11.174;2022-09-09T15:51:58;19.90;1.00
6178;DHT22;3122;48.208;11.174;2022-09-09T15:57:04;20.60;1.00
6178;DHT22;3122;48.208;11.174;2022-09-09T16:02:05;21.20;1.00
6178;DHT22;3122;48.208;11.174;2022-09-09T16:07:06;20.90;1.00
6178;DHT22;3122;48.208;11.174;2022-09-09T16:12:06;20.50;1.00
6178;DHT22;3122;48.208;11.174;2022-09-09T16:17:08;20.80;1.00
6178;DHT22;3122;48.208;11.174;2022-09-09T16:22:08;21.20;1.00
6178;DHT22;3122;48.208;11.174;2022-09-09T16:27:09;21.40;1.00
6178;DHT22;3122;48.208;11.174;2022-09-09T16:32:11;21.50;1.00
6178;DHT22;3122;48.208;11.174;2022-09-09T16:37:12;21.50;1.00
6178;DHT22;3122;48.208;11.174;2022-09-09T16:42:13;21.20;1.00
6178;DHT22;3122;48.208;11.174;2022-09-09T16:47:13;21.00;1.00
6178;DHT22;3122;48.208;11.174;2022-09-09T16:52:14;20.20;1.00
6178;DHT22;3122;48.208;11.174;2022-09-09T16:57:14;20.10;1.00
6178;DHT22;3122;48.208;11.174;2022-09-09T17:02:15;20.40;1.00
6178;DHT22;3122;48.208;11.174;2022-09-09T17:07:15;19.90;1.00
6178;DHT22;3122;48.208;11.174;2022-09-09T17:12:16;19.30;1.00
6178;DHT22;3122;48.208;11.174;2022-09-09T17:17:17;19.00;1.00
6178;DHT22;3122;48.208;11.174;2022-09-09T17:22:18;18.60;1.00
6178;DHT22;3122;48.208;11.174;2022-09-09T17:27:20;18.50;1.00
6178;DHT22;3122;48.208;11.174;2022-09-09T17:32:21;18.20;1.00
6178;DHT22;3122;48.208;11.174;2022-09-09T17:37:21;18.00;1.00
6178;DHT22;3122;48.208;11.174;2022-09-09T17:42:22;17.90;1.00
6178;DHT22;3122;48.208;11.174;2022-09-09T17:47:22;17.90;1.00
6178;DHT22;3122;48.208;11.174;2022-09-09T17:52:23;17.80;1.00
6178;DHT22;3122;48.208;11.174;2022-09-09T17:57:23;17.70;1.00
6178;DHT22;3122;48.208;11.174;2022-09-09T18:02:25;17.50;1.00
6178;DHT22;3122;48.208;11.174;2022-09-09T18:07:25;17.30;1.00
6178;DHT22;3122;48.208;11.174;2022-09-09T18:12:26;17.20;1.00
6178;DHT22;3122;48.208;11.174;2022-09-09T18:17:27;17.10;1.00
6178;DHT22;3122;48.208;11.174;2022-09-09T18:22:28;16.90;1.00
6178;DHT22;3122;48.208;11.174;2022-09-09T18:27:30;16.90;1.00
6178;DHT22;3122;48.208;11.174;2022-09-09T18:32:31;16.90;1.00
6178;DHT22;3122;48.208;11.174;2022-09-09T18:37:33;16.70;1.00
6178;DHT22;3122;48.208;11.174;2022-09-09T18:42:35;16.30;1.00
6178;DHT22;3122;48.208;11.174;2022-09-09T18:47:35;16.00;1.00
6178;DHT22;3122;48.208;11.174;2022-09-09T18:52:36;15.60;1.00
6178;DHT22;3122;48.208;11.174;2022-09-09T18:57:37;15.30;1.00
6178;DHT22;3122;48.208;11.174;2022-09-09T19:02:38;15.20;1.00
6178;DHT22;3122;48.208;11.174;2022-09-09T19:07:38;15.30;1.00
6178;DHT22;3122;48.208;11.174;2022-09-09T19:12:40;15.30;1.00
6178;DHT22;3122;48.208;11.174;2022-09-09T19:17:41;15.10;1.00
6178;DHT22;3122;48.208;11.174;2022-09-09T19:22:41;15.00;1.00
6178;DHT22;3122;48.208;11.174;2022-09-09T19:27:42;14.90;1.00
6178;DHT22;3122;48.208;11.174;2022-09-09T19:32:43;14.80;1.00
6178;DHT22;3122;48.208;11.174;2022-09-09T19:37:43;14.80;1.00
6178;DHT22;3122;48.208;11.174;2022-09-09T19:42:44;14.80;1.00
6178;DHT22;3122;48.208;11.174;2022-09-09T19:47:45;14.70;1.00
6178;DHT22;3122;48.208;11.174;2022-09-09T19:52:46;14.60;1.00
6178;DHT22;3122;48.208;11.174;2022-09-09T19:57:47;14.60;1.00
6178;DHT22;3122;48.208;11.174;2022-09-09T20:02:47;14.40;1.00
6178;DHT22;3122;48.208;11.174;2022-09-09T20:07:50;14.20;1.00
6178;DHT22;3122;48.208;11.174;2022-09-09T20:12:50;14.10;1.00
6178;DHT22;3122;48.208;11.174;2022-09-09T20:17:51;14.20;1.00
6178;DHT22;3122;48.208;11.174;2022-09-09T20:22:52;14.20;1.00
6178;DHT22;3122;48.208;11.174;2022-09-09T20:27:53;14.20;1.00
6178;DHT22;3122;48.208;11.174;2022-09-09T20:32:54;14.10;1.00
6178;DHT22;3122;48.208;11.174;2022-09-09T20:37:54;14.00;1.00
6178;DHT22;3122;48.208;11.174;2022-09-09T20:42:55;14.00;1.00
6178;DHT22;3122;48.208;11.174;2022-09-09T20:47:56;13.90;1.00
6178;DHT22;3122;48.208;11.174;2022-09-09T20:52:56;14.00;1.00
6178;DHT22;3122;48.208;11.174;2022-09-09T20:57:57;14.00;1.00
6178;DHT22;3122;48.208;11.174;2022-09-09T21:02:59;14.10;1.00
6178;DHT22;3122;48.208;11.174;2022-09-09T21:08:01;14.10;1.00
6178;DHT22;3122;48.208;11.174;2022-09-09T21:13:02;14.20;1.00
6178;DHT22;3122;48.208;11.174;2022-09-09T21:18:03;14.20;1.00
6178;DHT22;3122;48.208;11.174;2022-09-09T21:23:04;14.20;1.00
6178;DHT22;3122;48.208;11.174;2022-09-09T21:28:05;14.10;1.00
6178;DHT22;3122;48.208;11.174;2022-09-09T21:33:06;14.10;1.00
6178;DHT22;3122;48.208;11.174;2022-09-09T21:38:15;14.10;1.00
6178;DHT22;3122;48.208;11.174;2022-09-09T21:43:18;14.10;1.00
6178;DHT22;3122;48.208;11.174;2022-09-09T21:48:19;14.00;1.00
6178;DHT22;3122;48.208;11.174;2022-09-09T21:53:20;14.10;1.00
6178;DHT22;3122;48.208;11.174;2022-09-09T21:58:20;14.10;1.00
6178;DHT22;3122;48.208;11.174;2022-09-09T22:03:21;14.10;1.00
6178;DHT22;3122;48.208;11.174;2022-09-09T22:08:22;14.00;1.00
6178;DHT22;3122;48.208;11.174;2022-09-09T22:13:23;14.00;1.00
6178;DHT22;3122;48.208;11.174;2022-09-09T22:18:24;14.00;1.00
6178;DHT22;3122;48.208;11.174;2022-09-09T22:23:24;14.00;1.00
6178;DHT22;3122;48.208;11.174;2022-09-09T22:28:25;14.00;1.00
6178;DHT22;3122;48.208;11.174;2022-09-09T22:33:26;14.00;1.00
6178;DHT22;3122;48.208;11.174;2022-09-09T22:38:27;14.00;1.00
6178;DHT22;3122;48.208;11.174;2022-09-09T22:43:29;13.80;1.00
6178;DHT22;3122;48.208;11.174;2022-09-09T22:48:33;13.70;1.00
6178;DHT22;3122;48.208;11.174;2022-09-09T22:53:34;13.80;1.00
6178;DHT22;3122;48.208;11.174;2022-09-09T22:58:35;13.60;1.00
6178;DHT22;3122;48.208;11.174;2022-09-09T23:03:36;13.50;1.00
6178;DHT22;3122;48.208;11.174;2022-09-09T23:08:37;13.40;1.00
6178;DHT22;3122;48.208;11.174;2022-09-09T23:13:39;13.40;1.00
6178;DHT22;3122;48.208;11.174;2022-09-09T23:18:43;13.40;1.00
6178;DHT22;3122;48.208;11.174;2022-09-09T23:23:44;13.30;1.00
6178;DHT22;3122;48.208;11.174;2022-09-09T23:28:47;13.20;1.00
6178;DHT22;3122;48.208;11.174;2022-09-09T23:33:48;13.00;1.00
6178;DHT22;3122;48.208;11.174;2022-09-09T23:38:48;13.10;1.00
6178;DHT22;3122;48.208;11.174;2022-09-09T23:43:50;12.90;1.00
6178;DHT22;3122;48.208;11.174;2022-09-09T23:48:52;12.80;1.00
6178;DHT22;3122;48.208;11.174;2022-09-09T23:53:54;12.60;1.00
6178;DHT22;3122;48.208;11.174;2022-09-09T23:58:56;12.70;1.00
